sensor_id;sensor_type;location;lat;lon;timestamp;temperature;humidity
1568;DHT22;777;47.156;8.326;2023-04-03T00:02:05;6.40;99.90
1568;DHT22;777;47.156;8.326;2023-04-03T00:04:31;6.40;99.90
1568;DHT22;777;47.156;8.326;2023-04-03T00:07:00;6.40;99.90
1568;DHT22;777;47.156;8.326;2023-04-03T00:09:27;6.50;99.90
1568;DHT22;777;47.156;8.326;2023-04-03T00:11:54;6.60;99.90
1568;DHT22;777;47.156;8.326;2023-04-03T00:14:21;6.60;99.90
1568;DHT22;777;47.156;8.326;2023-04-03T00:16:48;6.70;99.90
1568;DHT22;777;47.156;8.326;2023-04-03T00:19:16;6.70;99.90
1568;DHT22;777;47.156;8.326;2023-04-03T00:21:43;6.70;99.90
1568;DHT22;777;47.156;8.326;2023-04-03T00:24:12;6.50;99.90
1568;DHT22;777;47.156;8.326;2023-04-03T00:26:39;6.60;99.90
1568;DHT22;777;47.156;8.326;2023-04-03T00:29:06;6.60;99.90
1568;DHT22;777;47.156;8.326;2023-04-03T00:31:33;6.60;99.90
1568;DHT22;777;47.156;8.326;2023-04-03T00:34:00;6.60;99.90
1568;DHT22;777;47.156;8.326;2023-04-03T00:36:27;6.60;99.90
1568;DHT22;777;47.156;8.326;2023-04-03T00:38:54;6.70;99.90
1568;DHT22;777;47.156;8.326;2023-04-03T00:41:22;6.70;99.90
1568;DHT22;777;47.156;8.326;2023-04-03T00:43:51;6.60;99.90
1568;DHT22;777;47.156;8.326;2023-04-03T00:46:18;6.50;99.90
1568;DHT22;777;47.156;8.326;2023-04-03T00:48:46;6.50;99.90
1568;DHT22;777;47.156;8.326;2023-04-03T00:51:16;6.50;99.90
1568;DHT22;777;47.156;8.326;2023-04-03T00:53:47;6.50;99.90
1568;DHT22;777;47.156;8.326;2023-04-03T00:56:18;6.50;99.90
1568;DHT22;777;47.156;8.326;2023-04-03T00:58:52;6.50;99.90
1568;DHT22;777;47.156;8.326;2023-04-03T01:01:22;6.50;99.90
1568;DHT22;777;47.156;8.326;2023-04-03T01:03:50;6.40;99.90
1568;DHT22;777;47.156;8.326;2023-04-03T01:06:21;6.40;99.90
1568;DHT22;777;47.156;8.326;2023-04-03T01:08:50;6.40;99.90
1568;DHT22;777;47.156;8.326;2023-04-03T01:11:17;6.40;99.90
1568;DHT22;777;47.156;8.326;2023-04-03T01:13:47;6.40;99.90
1568;DHT22;777;47.156;8.326;2023-04-03T01:16:16;6.40;99.90
1568;DHT22;777;47.156;8.326;2023-04-03T01:18:44;6.30;99.90
1568;DHT22;777;47.156;8.326;2023-04-03T01:21:52;6.20;99.90
1568;DHT22;777;47.156;8.326;2023-04-03T01:24:34;6.20;99.90
1568;DHT22;777;47.156;8.326;2023-04-03T01:27:05;6.10;99.90
1568;DHT22;777;47.156;8.326;2023-04-03T01:29:33;6.00;99.90
1568;DHT22;777;47.156;8.326;2023-04-03T01:32:03;6.00;99.90
1568;DHT22;777;47.156;8.326;2023-04-03T01:34:30;6.00;99.90
1568;DHT22;777;47.156;8.326;2023-04-03T01:36:58;5.90;99.90
1568;DHT22;777;47.156;8.326;2023-04-03T01:39:25;5.90;99.90
1568;DHT22;777;47.156;8.326;2023-04-03T01:41:52;5.80;99.90
1568;DHT22;777;47.156;8.326;2023-04-03T01:44:26;5.80;99.90
1568;DHT22;777;47.156;8.326;2023-04-03T01:46:53;5.70;99.90
1568;DHT22;777;47.156;8.326;2023-04-03T01:49:23;5.60;99.90
1568;DHT22;777;47.156;8.326;2023-04-03T01:51:50;5.60;99.90
1568;DHT22;777;47.156;8.326;2023-04-03T01:54:17;5.60;99.90
1568;DHT22;777;47.156;8.326;2023-04-03T01:56:45;5.50;99.90
1568;DHT22;777;47.156;8.326;2023-04-03T01:59:12;5.50;99.90
1568;DHT22;777;47.156;8.326;2023-04-03T02:01:43;5.40;99.90
1568;DHT22;777;47.156;8.326;2023-04-03T02:04:11;5.50;99.90
1568;DHT22;777;47.156;8.326;2023-04-03T02:06:39;5.40;99.90
1568;DHT22;777;47.156;8.326;2023-04-03T02:09:06;5.30;99.90
1568;DHT22;777;47.156;8.326;2023-04-03T02:11:33;5.30;99.90
1568;DHT22;777;47.156;8.326;2023-04-03T02:14:01;5.20;99.90
1568;DHT22;777;47.156;8.326;2023-04-03T02:16:28;5.20;99.90
1568;DHT22;777;47.156;8.326;2023-04-03T02:18:56;5.20;99.90
1568;DHT22;777;47.156;8.326;2023-04-03T02:21:23;5.10;99.90
1568;DHT22;777;47.156;8.326;2023-04-03T02:23:51;5.10;99.90
1568;DHT22;777;47.156;8.326;2023-04-03T02:26:19;5.10;99.90
1568;DHT22;777;47.156;8.326;2023-04-03T02:28:46;5.10;99.90
1568;DHT22;777;47.156;8.326;2023-04-03T02:31:14;5.00;99.90
1568;DHT22;777;47.156;8.326;2023-04-03T02:33:42;4.90;99.90
1568;DHT22;777;47.156;8.326;2023-04-03T02:36:12;4.90;99.90
1568;DHT22;777;47.156;8.326;2023-04-03T02:38:42;4.90;99.90
1568;DHT22;777;47.156;8.326;2023-04-03T02:41:12;4.80;99.90
1568;DHT22;777;47.156;8.326;2023-04-03T02:43:39;4.80;99.90
1568;DHT22;777;47.156;8.326;2023-04-03T02:46:06;4.80;99.90
1568;DHT22;777;47.156;8.326;2023-04-03T02:48:33;4.80;99.90
1568;DHT22;777;47.156;8.326;2023-04-03T02:51:01;4.70;99.90
1568;DHT22;777;47.156;8.326;2023-04-03T02:53:28;4.70;99.90
1568;DHT22;777;47.156;8.326;2023-04-03T02:55:55;4.70;99.90
1568;DHT22;777;47.156;8.326;2023-04-03T02:58:24;4.70;99.90
1568;DHT22;777;47.156;8.326;2023-04-03T03:00:54;4.60;99.90
1568;DHT22;777;47.156;8.326;2023-04-03T03:03:21;4.60;99.90
1568;DHT22;777;47.156;8.326;2023-04-03T03:05:48;4.60;99.90
1568;DHT22;777;47.156;8.326;2023-04-03T03:08:15;4.60;99.90
1568;DHT22;777;47.156;8.326;2023-04-03T03:10:46;4.70;99.90
1568;DHT22;777;47.156;8.326;2023-04-03T03:13:12;4.80;99.90
1568;DHT22;777;47.156;8.326;2023-04-03T03:15:41;4.80;99.90
1568;DHT22;777;47.156;8.326;2023-04-03T03:18:08;4.70;99.90
1568;DHT22;777;47.156;8.326;2023-04-03T03:20:35;4.70;99.90
1568;DHT22;777;47.156;8.326;2023-04-03T03:23:02;4.60;99.90
1568;DHT22;777;47.156;8.326;2023-04-03T03:25:29;4.60;99.90
1568;DHT22;777;47.156;8.326;2023-04-03T03:27:56;4.60;99.90
1568;DHT22;777;47.156;8.326;2023-04-03T03:30:24;4.60;99.90
1568;DHT22;777;47.156;8.326;2023-04-03T03:32:53;4.60;99.90
1568;DHT22;777;47.156;8.326;2023-04-03T03:35:20;4.60;99.90
1568;DHT22;777;47.156;8.326;2023-04-03T03:37:47;4.70;99.90
1568;DHT22;777;47.156;8.326;2023-04-03T03:40:14;4.70;99.90
1568;DHT22;777;47.156;8.326;2023-04-03T03:42:42;4.70;99.90
1568;DHT22;777;47.156;8.326;2023-04-03T03:45:10;4.70;99.90
1568;DHT22;777;47.156;8.326;2023-04-03T03:47:37;4.60;99.90
1568;DHT22;777;47.156;8.326;2023-04-03T03:50:09;4.40;99.90
1568;DHT22;777;47.156;8.326;2023-04-03T03:52:36;4.50;99.90
1568;DHT22;777;47.156;8.326;2023-04-03T03:55:03;4.40;99.90
1568;DHT22;777;47.156;8.326;2023-04-03T03:57:31;4.40;99.90
1568;DHT22;777;47.156;8.326;2023-04-03T03:59:58;4.50;99.90
1568;DHT22;777;47.156;8.326;2023-04-03T04:02:25;4.50;99.90
1568;DHT22;777;47.156;8.326;2023-04-03T04:04:53;4.40;99.90
1568;DHT22;777;47.156;8.326;2023-04-03T04:07:22;4.40;99.90
1568;DHT22;777;47.156;8.326;2023-04-03T04:09:49;4.40;99.90
1568;DHT22;777;47.156;8.326;2023-04-03T04:12:16;4.30;99.90
1568;DHT22;777;47.156;8.326;2023-04-03T04:14:43;4.30;99.90
1568;DHT22;777;47.156;8.326;2023-04-03T04:17:13;4.30;99.90
1568;DHT22;777;47.156;8.326;2023-04-03T04:19:40;4.30;99.90
1568;DHT22;777;47.156;8.326;2023-04-03T04:22:07;4.30;99.90
1568;DHT22;777;47.156;8.326;2023-04-03T04:24:36;4.20;99.90
1568;DHT22;777;47.156;8.326;2023-04-03T04:27:03;4.20;99.90
1568;DHT22;777;47.156;8.326;2023-04-03T04:29:32;4.10;99.90
1568;DHT22;777;47.156;8.326;2023-04-03T04:32:02;4.00;99.90
1568;DHT22;777;47.156;8.326;2023-04-03T04:34:29;3.90;99.90
1568;DHT22;777;47.156;8.326;2023-04-03T04:36:56;3.90;99.90
1568;DHT22;777;47.156;8.326;2023-04-03T04:39:25;3.90;99.90
1568;DHT22;777;47.156;8.326;2023-04-03T04:41:56;3.90;99.90
1568;DHT22;777;47.156;8.326;2023-04-03T04:44:25;3.80;99.90
1568;DHT22;777;47.156;8.326;2023-04-03T04:46:53;3.80;99.90
1568;DHT22;777;47.156;8.326;2023-04-03T04:49:20;3.80;99.90
1568;DHT22;777;47.156;8.326;2023-04-03T04:51:47;3.70;99.90
1568;DHT22;777;47.156;8.326;2023-04-03T04:54:17;3.80;99.90
1568;DHT22;777;47.156;8.326;2023-04-03T04:56:46;3.80;99.90
1568;DHT22;777;47.156;8.326;2023-04-03T04:59:15;3.80;99.90
1568;DHT22;777;47.156;8.326;2023-04-03T05:01:42;3.70;99.90
1568;DHT22;777;47.156;8.326;2023-04-03T05:04:14;3.70;99.90
1568;DHT22;777;47.156;8.326;2023-04-03T05:06:43;3.60;99.90
1568;DHT22;777;47.156;8.326;2023-04-03T05:09:14;3.60;99.90
1568;DHT22;777;47.156;8.326;2023-04-03T05:11:43;3.60;99.90
1568;DHT22;777;47.156;8.326;2023-04-03T05:14:15;3.60;99.90
1568;DHT22;777;47.156;8.326;2023-04-03T05:16:43;3.60;99.90
1568;DHT22;777;47.156;8.326;2023-04-03T05:19:10;3.70;99.90
1568;DHT22;777;47.156;8.326;2023-04-03T05:21:38;3.60;99.90
1568;DHT22;777;47.156;8.326;2023-04-03T05:24:10;3.50;99.90
1568;DHT22;777;47.156;8.326;2023-04-03T05:26:40;3.50;99.90
1568;DHT22;777;47.156;8.326;2023-04-03T05:29:07;3.40;99.90
1568;DHT22;777;47.156;8.326;2023-04-03T05:31:36;3.40;99.90
1568;DHT22;777;47.156;8.326;2023-04-03T05:34:03;3.40;99.90
1568;DHT22;777;47.156;8.326;2023-04-03T05:36:34;3.40;99.90
1568;DHT22;777;47.156;8.326;2023-04-03T05:39:04;3.40;99.90
1568;DHT22;777;47.156;8.326;2023-04-03T05:41:34;3.40;99.90
1568;DHT22;777;47.156;8.326;2023-04-03T05:44:01;3.40;99.90
1568;DHT22;777;47.156;8.326;2023-04-03T05:46:29;3.30;99.90
1568;DHT22;777;47.156;8.326;2023-04-03T05:49:00;3.30;99.90
1568;DHT22;777;47.156;8.326;2023-04-03T05:51:33;3.30;99.90
1568;DHT22;777;47.156;8.326;2023-04-03T05:54:11;3.30;99.90
1568;DHT22;777;47.156;8.326;2023-04-03T05:56:41;3.30;99.90
1568;DHT22;777;47.156;8.326;2023-04-03T05:59:08;3.20;99.90
1568;DHT22;777;47.156;8.326;2023-04-03T06:01:36;3.30;99.90
1568;DHT22;777;47.156;8.326;2023-04-03T06:04:04;3.30;99.90
1568;DHT22;777;47.156;8.326;2023-04-03T06:06:45;3.30;99.90
1568;DHT22;777;47.156;8.326;2023-04-03T06:09:13;3.20;99.90
1568;DHT22;777;47.156;8.326;2023-04-03T06:11:41;3.20;99.90
1568;DHT22;777;47.156;8.326;2023-04-03T06:14:09;3.30;99.90
1568;DHT22;777;47.156;8.326;2023-04-03T06:16:36;3.10;99.90
1568;DHT22;777;47.156;8.326;2023-04-03T06:19:08;3.10;99.90
1568;DHT22;777;47.156;8.326;2023-04-03T06:21:38;3.10;99.90
1568;DHT22;777;47.156;8.326;2023-04-03T06:24:06;3.10;99.90
1568;DHT22;777;47.156;8.326;2023-04-03T06:26:33;3.10;99.90
1568;DHT22;777;47.156;8.326;2023-04-03T06:29:01;3.10;99.90
1568;DHT22;777;47.156;8.326;2023-04-03T06:31:28;3.10;99.90
1568;DHT22;777;47.156;8.326;2023-04-03T06:33:55;3.10;99.90
1568;DHT22;777;47.156;8.326;2023-04-03T06:36:24;3.00;99.90
1568;DHT22;777;47.156;8.326;2023-04-03T06:38:51;3.00;99.90
1568;DHT22;777;47.156;8.326;2023-04-03T06:41:18;3.20;99.90
1568;DHT22;777;47.156;8.326;2023-04-03T06:43:45;3.30;99.90
1568;DHT22;777;47.156;8.326;2023-04-03T06:46:16;3.20;99.90
1568;DHT22;777;47.156;8.326;2023-04-03T06:48:44;3.20;99.90
1568;DHT22;777;47.156;8.326;2023-04-03T06:51:22;3.10;99.90
1568;DHT22;777;47.156;8.326;2023-04-03T06:53:52;3.30;99.90
1568;DHT22;777;47.156;8.326;2023-04-03T06:56:19;3.50;99.90
1568;DHT22;777;47.156;8.326;2023-04-03T06:58:47;3.60;99.90
1568;DHT22;777;47.156;8.326;2023-04-03T07:01:16;3.60;99.90
1568;DHT22;777;47.156;8.326;2023-04-03T07:03:43;3.80;99.90
1568;DHT22;777;47.156;8.326;2023-04-03T07:06:12;4.00;99.90
1568;DHT22;777;47.156;8.326;2023-04-03T07:08:40;4.00;99.90
1568;DHT22;777;47.156;8.326;2023-04-03T07:11:09;4.20;99.90
1568;DHT22;777;47.156;8.326;2023-04-03T07:13:36;4.10;99.90
1568;DHT22;777;47.156;8.326;2023-04-03T07:16:04;4.20;99.90
1568;DHT22;777;47.156;8.326;2023-04-03T07:18:31;4.20;99.90
1568;DHT22;777;47.156;8.326;2023-04-03T07:20:58;4.20;99.90
1568;DHT22;777;47.156;8.326;2023-04-03T07:23:26;4.20;99.90
1568;DHT22;777;47.156;8.326;2023-04-03T07:25:53;4.10;99.90
1568;DHT22;777;47.156;8.326;2023-04-03T07:28:22;4.20;99.90
1568;DHT22;777;47.156;8.326;2023-04-03T07:30:50;4.20;99.90
1568;DHT22;777;47.156;8.326;2023-04-03T07:33:19;4.30;99.90
1568;DHT22;777;47.156;8.326;2023-04-03T07:35:46;4.30;99.90
1568;DHT22;777;47.156;8.326;2023-04-03T07:38:14;4.50;99.90
1568;DHT22;777;47.156;8.326;2023-04-03T07:40:45;4.40;99.90
1568;DHT22;777;47.156;8.326;2023-04-03T07:43:13;4.40;99.90
1568;DHT22;777;47.156;8.326;2023-04-03T07:45:41;4.40;99.90
1568;DHT22;777;47.156;8.326;2023-04-03T07:48:09;4.40;99.90
1568;DHT22;777;47.156;8.326;2023-04-03T07:50:36;4.50;99.90
1568;DHT22;777;47.156;8.326;2023-04-03T07:53:03;4.60;99.90
1568;DHT22;777;47.156;8.326;2023-04-03T07:55:32;4.70;99.90
1568;DHT22;777;47.156;8.326;2023-04-03T07:57:59;4.50;99.90
1568;DHT22;777;47.156;8.326;2023-04-03T08:00:26;4.70;99.90
1568;DHT22;777;47.156;8.326;2023-04-03T08:02:54;4.60;99.90
1568;DHT22;777;47.156;8.326;2023-04-03T08:05:21;4.60;99.90
1568;DHT22;777;47.156;8.326;2023-04-03T08:07:48;4.60;99.90
1568;DHT22;777;47.156;8.326;2023-04-03T08:10:15;4.40;99.90
1568;DHT22;777;47.156;8.326;2023-04-03T08:12:45;4.30;99.90
1568;DHT22;777;47.156;8.326;2023-04-03T08:15:12;4.50;99.90
1568;DHT22;777;47.156;8.326;2023-04-03T08:17:39;4.70;99.90
1568;DHT22;777;47.156;8.326;2023-04-03T08:20:10;4.70;99.90
1568;DHT22;777;47.156;8.326;2023-04-03T08:22:37;5.00;99.90
1568;DHT22;777;47.156;8.326;2023-04-03T08:25:05;4.70;99.90
1568;DHT22;777;47.156;8.326;2023-04-03T08:27:32;4.70;99.90
1568;DHT22;777;47.156;8.326;2023-04-03T08:29:59;4.40;99.90
1568;DHT22;777;47.156;8.326;2023-04-03T08:32:26;4.70;99.90
1568;DHT22;777;47.156;8.326;2023-04-03T08:34:53;4.90;99.90
1568;DHT22;777;47.156;8.326;2023-04-03T08:37:23;4.60;99.90
1568;DHT22;777;47.156;8.326;2023-04-03T08:39:50;4.70;99.90
1568;DHT22;777;47.156;8.326;2023-04-03T08:42:25;4.50;99.90
1568;DHT22;777;47.156;8.326;2023-04-03T08:45:01;4.30;99.90
1568;DHT22;777;47.156;8.326;2023-04-03T08:47:34;4.30;99.90
1568;DHT22;777;47.156;8.326;2023-04-03T08:50:06;4.30;99.90
1568;DHT22;777;47.156;8.326;2023-04-03T08:52:37;4.10;99.90
1568;DHT22;777;47.156;8.326;2023-04-03T08:55:13;4.00;99.90
1568;DHT22;777;47.156;8.326;2023-04-03T08:57:44;4.40;99.90
1568;DHT22;777;47.156;8.326;2023-04-03T09:00:17;4.50;99.90
1568;DHT22;777;47.156;8.326;2023-04-03T09:02:46;4.40;99.90
1568;DHT22;777;47.156;8.326;2023-04-03T09:05:16;4.40;99.90
1568;DHT22;777;47.156;8.326;2023-04-03T09:07:46;4.30;99.90
1568;DHT22;777;47.156;8.326;2023-04-03T09:10:15;4.40;99.90
1568;DHT22;777;47.156;8.326;2023-04-03T09:12:46;4.60;99.90
1568;DHT22;777;47.156;8.326;2023-04-03T09:15:18;4.50;99.90
1568;DHT22;777;47.156;8.326;2023-04-03T09:17:59;4.30;99.90
1568;DHT22;777;47.156;8.326;2023-04-03T09:20:36;4.30;99.90
1568;DHT22;777;47.156;8.326;2023-04-03T09:23:15;4.40;99.90
1568;DHT22;777;47.156;8.326;2023-04-03T09:25:44;4.30;99.90
1568;DHT22;777;47.156;8.326;2023-04-03T09:28:11;4.60;99.90
1568;DHT22;777;47.156;8.326;2023-04-03T09:30:38;4.50;99.90
1568;DHT22;777;47.156;8.326;2023-04-03T09:33:05;4.40;99.90
1568;DHT22;777;47.156;8.326;2023-04-03T09:35:34;4.30;99.90
1568;DHT22;777;47.156;8.326;2023-04-03T09:38:17;4.30;99.90
1568;DHT22;777;47.156;8.326;2023-04-03T09:40:45;4.50;99.90
1568;DHT22;777;47.156;8.326;2023-04-03T09:43:24;4.50;99.90
1568;DHT22;777;47.156;8.326;2023-04-03T09:45:53;4.50;99.90
1568;DHT22;777;47.156;8.326;2023-04-03T09:48:21;4.50;99.90
1568;DHT22;777;47.156;8.326;2023-04-03T09:51:09;4.40;99.90
1568;DHT22;777;47.156;8.326;2023-04-03T09:53:44;4.40;99.90
1568;DHT22;777;47.156;8.326;2023-04-03T09:56:21;4.40;99.90
1568;DHT22;777;47.156;8.326;2023-04-03T09:58:49;4.50;99.90
1568;DHT22;777;47.156;8.326;2023-04-03T10:01:26;4.60;99.90
1568;DHT22;777;47.156;8.326;2023-04-03T10:04:08;4.80;99.90
1568;DHT22;777;47.156;8.326;2023-04-03T10:06:38;4.50;99.90
1568;DHT22;777;47.156;8.326;2023-04-03T10:09:18;4.60;99.90
1568;DHT22;777;47.156;8.326;2023-04-03T10:12:02;4.80;99.90
1568;DHT22;777;47.156;8.326;2023-04-03T10:14:30;5.00;99.90
1568;DHT22;777;47.156;8.326;2023-04-03T10:17:04;5.00;99.90
1568;DHT22;777;47.156;8.326;2023-04-03T10:19:40;5.30;99.90
1568;DHT22;777;47.156;8.326;2023-04-03T10:22:16;5.20;99.90
1568;DHT22;777;47.156;8.326;2023-04-03T10:24:52;5.20;99.90
1568;DHT22;777;47.156;8.326;2023-04-03T10:27:30;5.10;99.90
1568;DHT22;777;47.156;8.326;2023-04-03T10:30:04;5.30;99.90
1568;DHT22;777;47.156;8.326;2023-04-03T10:32:52;5.20;99.90
1568;DHT22;777;47.156;8.326;2023-04-03T10:35:34;5.20;99.90
1568;DHT22;777;47.156;8.326;2023-04-03T10:38:08;5.20;99.90
1568;DHT22;777;47.156;8.326;2023-04-03T10:40:45;5.30;99.90
1568;DHT22;777;47.156;8.326;2023-04-03T10:43:21;5.20;99.90
1568;DHT22;777;47.156;8.326;2023-04-03T10:45:56;5.40;99.90
1568;DHT22;777;47.156;8.326;2023-04-03T10:48:39;4.90;99.90
1568;DHT22;777;47.156;8.326;2023-04-03T10:51:17;5.20;99.90
1568;DHT22;777;47.156;8.326;2023-04-03T10:53:55;5.00;99.90
1568;DHT22;777;47.156;8.326;2023-04-03T10:56:31;5.00;99.90
1568;DHT22;777;47.156;8.326;2023-04-03T10:59:05;5.60;99.90
1568;DHT22;777;47.156;8.326;2023-04-03T11:01:38;6.10;99.90
1568;DHT22;777;47.156;8.326;2023-04-03T11:04:07;5.80;99.90
1568;DHT22;777;47.156;8.326;2023-04-03T11:06:41;5.40;99.90
1568;DHT22;777;47.156;8.326;2023-04-03T11:09:18;5.10;99.90
1568;DHT22;777;47.156;8.326;2023-04-03T11:11:49;5.20;99.90
1568;DHT22;777;47.156;8.326;2023-04-03T11:14:24;5.60;99.90
1568;DHT22;777;47.156;8.326;2023-04-03T11:16:59;5.30;99.90
1568;DHT22;777;47.156;8.326;2023-04-03T11:19:34;5.40;99.90
1568;DHT22;777;47.156;8.326;2023-04-03T11:22:08;5.40;99.90
1568;DHT22;777;47.156;8.326;2023-04-03T11:24:40;5.50;99.90
1568;DHT22;777;47.156;8.326;2023-04-03T11:27:13;5.60;99.90
1568;DHT22;777;47.156;8.326;2023-04-03T11:29:42;6.00;99.90
1568;DHT22;777;47.156;8.326;2023-04-03T11:32:26;5.90;99.90
1568;DHT22;777;47.156;8.326;2023-04-03T11:34:56;6.30;99.90
1568;DHT22;777;47.156;8.326;2023-04-03T11:37:31;6.50;99.90
1568;DHT22;777;47.156;8.326;2023-04-03T11:40:04;6.40;99.90
1568;DHT22;777;47.156;8.326;2023-04-03T11:42:37;6.40;99.90
1568;DHT22;777;47.156;8.326;2023-04-03T11:45:29;6.40;99.90
1568;DHT22;777;47.156;8.326;2023-04-03T11:48:00;6.00;99.90
1568;DHT22;777;47.156;8.326;2023-04-03T11:50:38;5.90;99.90
1568;DHT22;777;47.156;8.326;2023-04-03T11:53:26;5.90;99.90
1568;DHT22;777;47.156;8.326;2023-04-03T11:56:00;6.10;99.90
1568;DHT22;777;47.156;8.326;2023-04-03T11:58:30;6.00;99.90
1568;DHT22;777;47.156;8.326;2023-04-03T12:01:06;5.80;99.90
1568;DHT22;777;47.156;8.326;2023-04-03T12:06:59;6.00;99.90
1568;DHT22;777;47.156;8.326;2023-04-03T12:12:30;6.60;99.90
1568;DHT22;777;47.156;8.326;2023-04-03T12:17:51;6.80;99.90
1568;DHT22;777;47.156;8.326;2023-04-03T12:20:52;6.40;99.90
1568;DHT22;777;47.156;8.326;2023-04-03T12:23:30;6.60;99.90
1568;DHT22;777;47.156;8.326;2023-04-03T12:26:18;6.20;99.90
1568;DHT22;777;47.156;8.326;2023-04-03T12:28:48;6.50;99.90
1568;DHT22;777;47.156;8.326;2023-04-03T12:31:16;6.70;99.90
1568;DHT22;777;47.156;8.326;2023-04-03T12:34:04;6.30;99.90
1568;DHT22;777;47.156;8.326;2023-04-03T12:36:41;6.40;99.90
1568;DHT22;777;47.156;8.326;2023-04-03T12:39:25;6.70;99.90
1568;DHT22;777;47.156;8.326;2023-04-03T12:42:08;6.70;99.90
1568;DHT22;777;47.156;8.326;2023-04-03T12:44:46;6.70;99.90
1568;DHT22;777;47.156;8.326;2023-04-03T12:47:28;6.50;99.90
1568;DHT22;777;47.156;8.326;2023-04-03T12:50:00;7.00;99.90
1568;DHT22;777;47.156;8.326;2023-04-03T12:52:37;6.80;99.90
1568;DHT22;777;47.156;8.326;2023-04-03T12:55:17;6.80;99.90
1568;DHT22;777;47.156;8.326;2023-04-03T12:57:45;7.10;99.90
1568;DHT22;777;47.156;8.326;2023-04-03T13:00:37;7.10;99.90
1568;DHT22;777;47.156;8.326;2023-04-03T13:03:06;7.20;99.90
1568;DHT22;777;47.156;8.326;2023-04-03T13:05:47;7.40;99.90
1568;DHT22;777;47.156;8.326;2023-04-03T13:08:14;7.10;99.90
1568;DHT22;777;47.156;8.326;2023-04-03T13:10:53;6.80;99.90
1568;DHT22;777;47.156;8.326;2023-04-03T13:13:22;6.60;99.90
1568;DHT22;777;47.156;8.326;2023-04-03T13:15:49;7.00;99.90
1568;DHT22;777;47.156;8.326;2023-04-03T13:18:25;6.80;99.90
1568;DHT22;777;47.156;8.326;2023-04-03T13:20:57;6.70;99.90
1568;DHT22;777;47.156;8.326;2023-04-03T13:23:26;6.40;99.90
1568;DHT22;777;47.156;8.326;2023-04-03T13:25:54;6.40;99.90
1568;DHT22;777;47.156;8.326;2023-04-03T13:28:24;7.10;99.90
1568;DHT22;777;47.156;8.326;2023-04-03T13:30:59;7.40;99.90
1568;DHT22;777;47.156;8.326;2023-04-03T13:33:30;7.60;99.90
1568;DHT22;777;47.156;8.326;2023-04-03T13:36:03;6.90;99.90
1568;DHT22;777;47.156;8.326;2023-04-03T13:38:33;6.80;99.90
1568;DHT22;777;47.156;8.326;2023-04-03T13:41:04;6.90;99.90
1568;DHT22;777;47.156;8.326;2023-04-03T13:43:33;7.00;99.90
1568;DHT22;777;47.156;8.326;2023-04-03T13:46:04;7.30;99.90
1568;DHT22;777;47.156;8.326;2023-04-03T13:48:37;7.40;99.90
1568;DHT22;777;47.156;8.326;2023-04-03T13:51:18;7.10;99.90
1568;DHT22;777;47.156;8.326;2023-04-03T13:53:48;7.10;99.90
1568;DHT22;777;47.156;8.326;2023-04-03T13:56:23;6.70;99.90
1568;DHT22;777;47.156;8.326;2023-04-03T13:58:56;6.40;99.90
1568;DHT22;777;47.156;8.326;2023-04-03T14:01:25;6.10;99.90
1568;DHT22;777;47.156;8.326;2023-04-03T14:04:00;6.20;99.90
1568;DHT22;777;47.156;8.326;2023-04-03T14:06:29;6.00;99.90
1568;DHT22;777;47.156;8.326;2023-04-03T14:08:56;5.90;99.90
1568;DHT22;777;47.156;8.326;2023-04-03T14:11:28;6.10;99.90
1568;DHT22;777;47.156;8.326;2023-04-03T14:13:57;6.10;99.90
1568;DHT22;777;47.156;8.326;2023-04-03T14:16:28;5.90;99.90
1568;DHT22;777;47.156;8.326;2023-04-03T14:18:56;5.80;99.90
1568;DHT22;777;47.156;8.326;2023-04-03T14:21:24;5.80;99.90
1568;DHT22;777;47.156;8.326;2023-04-03T14:23:53;5.90;99.90
1568;DHT22;777;47.156;8.326;2023-04-03T14:26:22;6.00;99.90
1568;DHT22;777;47.156;8.326;2023-04-03T14:28:54;6.20;99.90
1568;DHT22;777;47.156;8.326;2023-04-03T14:31:21;6.10;99.90
1568;DHT22;777;47.156;8.326;2023-04-03T14:33:49;5.90;99.90
1568;DHT22;777;47.156;8.326;2023-04-03T14:36:18;5.80;99.90
1568;DHT22;777;47.156;8.326;2023-04-03T14:38:47;5.90;99.90
1568;DHT22;777;47.156;8.326;2023-04-03T14:41:18;6.20;99.90
1568;DHT22;777;47.156;8.326;2023-04-03T14:43:46;6.00;99.90
1568;DHT22;777;47.156;8.326;2023-04-03T14:46:15;6.10;99.90
1568;DHT22;777;47.156;8.326;2023-04-03T14:48:43;6.30;99.90
1568;DHT22;777;47.156;8.326;2023-04-03T14:51:11;6.20;99.90
1568;DHT22;777;47.156;8.326;2023-04-03T14:53:39;6.20;99.90
1568;DHT22;777;47.156;8.326;2023-04-03T14:56:11;6.00;99.90
1568;DHT22;777;47.156;8.326;2023-04-03T14:58:40;6.00;99.90
1568;DHT22;777;47.156;8.326;2023-04-03T15:01:09;6.00;99.90
1568;DHT22;777;47.156;8.326;2023-04-03T15:03:36;6.20;99.90
1568;DHT22;777;47.156;8.326;2023-04-03T15:06:03;6.30;99.90
1568;DHT22;777;47.156;8.326;2023-04-03T15:08:31;6.30;99.90
1568;DHT22;777;47.156;8.326;2023-04-03T15:10:58;6.40;99.90
1568;DHT22;777;47.156;8.326;2023-04-03T15:13:26;6.30;99.90
1568;DHT22;777;47.156;8.326;2023-04-03T15:15:54;6.20;99.90
1568;DHT22;777;47.156;8.326;2023-04-03T15:18:23;6.30;99.90
1568;DHT22;777;47.156;8.326;2023-04-03T15:20:51;6.20;99.90
1568;DHT22;777;47.156;8.326;2023-04-03T15:23:19;6.20;99.90
1568;DHT22;777;47.156;8.326;2023-04-03T15:25:47;6.20;99.90
1568;DHT22;777;47.156;8.326;2023-04-03T15:28:19;6.10;99.90
1568;DHT22;777;47.156;8.326;2023-04-03T15:30:48;6.10;99.90
1568;DHT22;777;47.156;8.326;2023-04-03T15:33:16;6.30;99.90
1568;DHT22;777;47.156;8.326;2023-04-03T15:35:43;6.40;99.90
1568;DHT22;777;47.156;8.326;2023-04-03T15:38:11;6.20;99.90
1568;DHT22;777;47.156;8.326;2023-04-03T15:40:38;6.20;99.90
1568;DHT22;777;47.156;8.326;2023-04-03T15:43:05;6.30;99.90
1568;DHT22;777;47.156;8.326;2023-04-03T15:45:34;6.10;99.90
1568;DHT22;777;47.156;8.326;2023-04-03T15:48:02;6.10;99.90
1568;DHT22;777;47.156;8.326;2023-04-03T15:50:32;5.90;99.90
1568;DHT22;777;47.156;8.326;2023-04-03T15:52:59;5.70;99.90
1568;DHT22;777;47.156;8.326;2023-04-03T15:55:28;5.80;99.90
1568;DHT22;777;47.156;8.326;2023-04-03T15:57:56;5.80;99.90
1568;DHT22;777;47.156;8.326;2023-04-03T16:00:24;5.60;99.90
1568;DHT22;777;47.156;8.326;2023-04-03T16:02:54;5.70;99.90
1568;DHT22;777;47.156;8.326;2023-04-03T16:05:24;5.60;99.90
1568;DHT22;777;47.156;8.326;2023-04-03T16:07:52;5.60;99.90
1568;DHT22;777;47.156;8.326;2023-04-03T16:10:20;5.50;99.90
1568;DHT22;777;47.156;8.326;2023-04-03T16:12:48;5.40;99.90
1568;DHT22;777;47.156;8.326;2023-04-03T16:15:15;5.40;99.90
1568;DHT22;777;47.156;8.326;2023-04-03T16:17:42;5.50;99.90
1568;DHT22;777;47.156;8.326;2023-04-03T16:20:11;5.40;99.90
1568;DHT22;777;47.156;8.326;2023-04-03T16:22:40;5.40;99.90
1568;DHT22;777;47.156;8.326;2023-04-03T16:25:10;5.40;99.90
1568;DHT22;777;47.156;8.326;2023-04-03T16:27:38;5.40;99.90
1568;DHT22;777;47.156;8.326;2023-04-03T16:30:06;5.40;99.90
1568;DHT22;777;47.156;8.326;2023-04-03T16:32:34;5.30;99.90
1568;DHT22;777;47.156;8.326;2023-04-03T16:35:01;5.20;99.90
1568;DHT22;777;47.156;8.326;2023-04-03T16:37:28;5.20;99.90
1568;DHT22;777;47.156;8.326;2023-04-03T16:39:55;5.20;99.90
1568;DHT22;777;47.156;8.326;2023-04-03T16:42:25;5.20;99.90
1568;DHT22;777;47.156;8.326;2023-04-03T16:44:52;5.20;99.90
1568;DHT22;777;47.156;8.326;2023-04-03T16:47:19;5.20;99.90
1568;DHT22;777;47.156;8.326;2023-04-03T16:49:46;5.10;99.90
1568;DHT22;777;47.156;8.326;2023-04-03T16:52:14;5.10;99.90
1568;DHT22;777;47.156;8.326;2023-04-03T16:54:41;5.00;99.90
1568;DHT22;777;47.156;8.326;2023-04-03T16:57:08;5.10;99.90
1568;DHT22;777;47.156;8.326;2023-04-03T16:59:36;5.10;99.90
1568;DHT22;777;47.156;8.326;2023-04-03T17:02:03;5.00;99.90
1568;DHT22;777;47.156;8.326;2023-04-03T17:04:31;5.00;99.90